Terminal Aerodrome Forecast
Issued by NWS

Home | Current Version | Previous Version | Graphics & Text | Print | Product List | Glossary On
Versions: 1 2 3 4 5 6 7 8 9 10 11 12 13 14 15 16 17 18
788
FTUS43 KTOP 270307 AAA
TAFFOE
TAF AMD
KFOE 270307Z 2703/2724 04005KT P6SM SCT070 BKN150
      TEMPO 2704/2706 3SM -TSRA SCT040 BKN070CB
     FM270800 12003KT P6SM VCTS SCT020 BKN035CB
     FM271400 17007KT P6SM SCT040=

USA.gov is the U.S. government's official web portal to all federal, state and local government web resources and services.